Aviation Digital Data Service (ADDS)

Output produced by TAFs form (1042 UTC 11 February 2016)
found at http://aviationweather.gov/adds/tafs/
 
KHOB 110533Z 1106/1206 23006KT P6SM SKC 
     FM111500 34012KT P6SM FEW250